sensor_id;sensor_type;location;lat;lon;timestamp;pressure;altitude;pressure_sealevel;temperature;humidity
59043;BME280;44826;51.596;5.624;2024-03-25T00:01:59;100719.53;;;4.49;100.00
59043;BME280;44826;51.596;5.624;2024-03-25T00:04:24;100719.53;;;4.49;100.00
59043;BME280;44826;51.596;5.624;2024-03-25T00:06:50;100711.81;;;4.49;100.00
59043;BME280;44826;51.596;5.624;2024-03-25T00:09:16;100716.13;;;4.45;100.00
59043;BME280;44826;51.596;5.624;2024-03-25T00:11:42;100711.84;;;4.43;100.00
59043;BME280;44826;51.596;5.624;2024-03-25T00:14:07;100714.41;;;4.39;100.00
59043;BME280;44826;51.596;5.624;2024-03-25T00:16:34;100717.00;;;4.36;100.00
59043;BME280;44826;51.596;5.624;2024-03-25T00:18:59;100718.69;;;4.36;100.00
59043;BME280;44826;51.596;5.624;2024-03-25T00:21:25;100716.13;;;4.36;100.00
59043;BME280;44826;51.596;5.624;2024-03-25T00:23:50;100713.56;;;4.34;100.00
59043;BME280;44826;51.596;5.624;2024-03-25T00:26:15;100711.84;;;4.30;100.00
59043;BME280;44826;51.596;5.624;2024-03-25T00:28:41;100711.84;;;4.27;100.00
59043;BME280;44826;51.596;5.624;2024-03-25T00:31:06;100709.28;;;4.25;100.00
59043;BME280;44826;51.596;5.624;2024-03-25T00:33:31;100706.72;;;4.24;100.00
59043;BME280;44826;51.596;5.624;2024-03-25T00:35:57;100708.44;;;4.22;100.00
59043;BME280;44826;51.596;5.624;2024-03-25T00:38:23;100707.56;;;4.21;100.00
59043;BME280;44826;51.596;5.624;2024-03-25T00:40:49;100706.72;;;4.21;100.00
59043;BME280;44826;51.596;5.624;2024-03-25T00:43:15;100707.56;;;4.21;100.00
59043;BME280;44826;51.596;5.624;2024-03-25T00:45:41;100699.84;;;4.20;100.00
59043;BME280;44826;51.596;5.624;2024-03-25T00:48:07;100697.28;;;4.15;100.00
59043;BME280;44826;51.596;5.624;2024-03-25T00:50:32;100694.72;;;4.12;100.00
59043;BME280;44826;51.596;5.624;2024-03-25T00:52:57;100693.00;;;4.06;100.00
59043;BME280;44826;51.596;5.624;2024-03-25T00:55:23;100699.00;;;4.04;100.00
59043;BME280;44826;51.596;5.624;2024-03-25T00:57:49;100697.31;;;3.98;100.00
59043;BME280;44826;51.596;5.624;2024-03-25T01:00:15;100694.72;;;3.95;100.00
59043;BME280;44826;51.596;5.624;2024-03-25T01:02:40;100695.59;;;3.89;100.00
59043;BME280;44826;51.596;5.624;2024-03-25T01:05:07;100698.16;;;3.85;100.00
59043;BME280;44826;51.596;5.624;2024-03-25T01:07:32;100705.03;;;3.79;100.00
59043;BME280;44826;51.596;5.624;2024-03-25T01:09:58;100710.16;;;3.76;100.00
59043;BME280;44826;51.596;5.624;2024-03-25T01:12:24;100695.59;;;3.71;100.00
59043;BME280;44826;51.596;5.624;2024-03-25T01:14:49;100710.16;;;3.69;100.00
59043;BME280;44826;51.596;5.624;2024-03-25T01:17:14;100714.47;;;3.65;100.00
59043;BME280;44826;51.596;5.624;2024-03-25T01:19:40;100710.16;;;3.61;100.00
59043;BME280;44826;51.596;5.624;2024-03-25T01:22:05;100717.00;;;3.59;100.00
59043;BME280;44826;51.596;5.624;2024-03-25T01:24:30;100718.75;;;3.54;100.00
59043;BME280;44826;51.596;5.624;2024-03-25T01:26:56;100710.16;;;3.48;100.00
59043;BME280;44826;51.596;5.624;2024-03-25T01:29:21;100713.59;;;3.47;100.00
59043;BME280;44826;51.596;5.624;2024-03-25T01:31:47;100709.28;;;3.43;100.00
59043;BME280;44826;51.596;5.624;2024-03-25T01:34:12;100712.72;;;3.41;100.00
59043;BME280;44826;51.596;5.624;2024-03-25T01:36:37;100712.72;;;3.38;100.00
59043;BME280;44826;51.596;5.624;2024-03-25T01:39:04;100712.72;;;3.36;100.00
59043;BME280;44826;51.596;5.624;2024-03-25T01:41:30;100715.28;;;3.33;100.00
59043;BME280;44826;51.596;5.624;2024-03-25T01:43:55;100727.25;;;3.31;100.00
59043;BME280;44826;51.596;5.624;2024-03-25T01:46:21;100722.09;;;3.28;100.00
59043;BME280;44826;51.596;5.624;2024-03-25T01:48:47;100722.09;;;3.25;100.00
59043;BME280;44826;51.596;5.624;2024-03-25T01:51:15;100722.13;;;3.22;100.00
59043;BME280;44826;51.596;5.624;2024-03-25T01:53:42;100722.13;;;3.22;100.00
59043;BME280;44826;51.596;5.624;2024-03-25T01:56:08;100712.66;;;3.19;100.00
59043;BME280;44826;51.596;5.624;2024-03-25T01:58:35;100715.25;;;3.17;100.00
59043;BME280;44826;51.596;5.624;2024-03-25T02:01:02;100708.38;;;3.16;100.00
59043;BME280;44826;51.596;5.624;2024-03-25T02:03:29;100714.38;;;3.18;100.00
59043;BME280;44826;51.596;5.624;2024-03-25T02:05:57;100705.81;;;3.18;100.00
59043;BME280;44826;51.596;5.624;2024-03-25T02:08:22;100703.25;;;3.19;100.00
59043;BME280;44826;51.596;5.624;2024-03-25T02:10:48;100710.09;;;3.17;100.00
59043;BME280;44826;51.596;5.624;2024-03-25T02:13:14;100710.09;;;3.17;100.00
59043;BME280;44826;51.596;5.624;2024-03-25T02:15:41;100713.53;;;3.16;100.00
59043;BME280;44826;51.596;5.624;2024-03-25T02:18:06;100708.38;;;3.15;100.00
59043;BME280;44826;51.596;5.624;2024-03-25T02:20:31;100709.22;;;3.15;100.00
59043;BME280;44826;51.596;5.624;2024-03-25T02:22:57;100710.94;;;3.13;100.00
59043;BME280;44826;51.596;5.624;2024-03-25T02:25:22;100717.78;;;3.14;100.00
59043;BME280;44826;51.596;5.624;2024-03-25T02:27:48;100716.94;;;3.15;100.00
59043;BME280;44826;51.596;5.624;2024-03-25T02:30:14;100711.81;;;3.15;100.00
59043;BME280;44826;51.596;5.624;2024-03-25T02:32:39;100705.81;;;3.15;100.00
59043;BME280;44826;51.596;5.624;2024-03-25T02:35:07;100711.81;;;3.15;100.00
59043;BME280;44826;51.596;5.624;2024-03-25T02:37:35;100713.53;;;3.15;100.00
59043;BME280;44826;51.596;5.624;2024-03-25T02:40:02;100710.97;;;3.15;100.00
59043;BME280;44826;51.596;5.624;2024-03-25T02:42:31;100704.94;;;3.14;100.00
59043;BME280;44826;51.596;5.624;2024-03-25T02:44:57;100699.78;;;3.11;100.00
59043;BME280;44826;51.596;5.624;2024-03-25T02:47:22;100708.38;;;3.07;100.00
59043;BME280;44826;51.596;5.624;2024-03-25T02:49:47;100697.22;;;3.05;100.00
59043;BME280;44826;51.596;5.624;2024-03-25T02:52:13;100696.34;;;3.03;100.00
59043;BME280;44826;51.596;5.624;2024-03-25T02:54:39;100698.06;;;3.01;100.00
59043;BME280;44826;51.596;5.624;2024-03-25T02:57:04;100691.19;;;2.97;100.00
59043;BME280;44826;51.596;5.624;2024-03-25T02:59:29;100695.47;;;2.95;100.00
59043;BME280;44826;51.596;5.624;2024-03-25T03:01:55;100686.91;;;2.94;100.00
59043;BME280;44826;51.596;5.624;2024-03-25T03:04:20;100692.88;;;2.92;100.00
59043;BME280;44826;51.596;5.624;2024-03-25T03:06:45;100692.03;;;2.91;100.00
59043;BME280;44826;51.596;5.624;2024-03-25T03:09:11;100689.47;;;2.90;100.00
59043;BME280;44826;51.596;5.624;2024-03-25T03:11:36;100691.16;;;2.87;100.00
59043;BME280;44826;51.596;5.624;2024-03-25T03:14:01;100686.88;;;2.88;100.00
59043;BME280;44826;51.596;5.624;2024-03-25T03:16:27;100687.72;;;2.87;100.00
59043;BME280;44826;51.596;5.624;2024-03-25T03:18:54;100699.72;;;2.86;100.00
59043;BME280;44826;51.596;5.624;2024-03-25T03:21:19;100691.16;;;2.84;100.00
59043;BME280;44826;51.596;5.624;2024-03-25T03:23:44;100686.00;;;2.84;100.00
59043;BME280;44826;51.596;5.624;2024-03-25T03:26:10;100679.16;;;2.83;100.00
59043;BME280;44826;51.596;5.624;2024-03-25T03:28:35;100680.00;;;2.84;100.00
59043;BME280;44826;51.596;5.624;2024-03-25T03:31:00;100672.31;;;2.82;100.00
59043;BME280;44826;51.596;5.624;2024-03-25T03:33:26;100674.88;;;2.81;100.00
59043;BME280;44826;51.596;5.624;2024-03-25T03:35:51;100678.28;;;2.80;100.00
59043;BME280;44826;51.596;5.624;2024-03-25T03:38:17;100672.25;;;2.76;100.00
59043;BME280;44826;51.596;5.624;2024-03-25T03:40:42;100672.25;;;2.76;100.00
59043;BME280;44826;51.596;5.624;2024-03-25T03:43:07;100676.53;;;2.74;100.00
59043;BME280;44826;51.596;5.624;2024-03-25T03:45:33;100673.97;;;2.74;100.00
59043;BME280;44826;51.596;5.624;2024-03-25T03:48:01;100673.13;;;2.72;100.00
59043;BME280;44826;51.596;5.624;2024-03-25T03:50:26;100679.97;;;2.70;100.00
59043;BME280;44826;51.596;5.624;2024-03-25T03:52:51;100678.25;;;2.69;100.00
59043;BME280;44826;51.596;5.624;2024-03-25T03:55:17;100677.38;;;2.67;100.00
59043;BME280;44826;51.596;5.624;2024-03-25T03:57:42;100683.34;;;2.63;100.00
59043;BME280;44826;51.596;5.624;2024-03-25T04:00:08;100679.03;;;2.58;100.00
59043;BME280;44826;51.596;5.624;2024-03-25T04:02:34;100678.16;;;2.56;100.00
59043;BME280;44826;51.596;5.624;2024-03-25T04:04:59;100684.16;;;2.54;100.00
59043;BME280;44826;51.596;5.624;2024-03-25T04:07:25;100670.47;;;2.50;100.00
59043;BME280;44826;51.596;5.624;2024-03-25T04:09:57;100678.16;;;2.47;100.00
59043;BME280;44826;51.596;5.624;2024-03-25T04:12:22;100681.56;;;2.45;100.00
59043;BME280;44826;51.596;5.624;2024-03-25T04:14:48;100680.69;;;2.42;100.00
59043;BME280;44826;51.596;5.624;2024-03-25T04:17:14;100676.38;;;2.40;100.00
59043;BME280;44826;51.596;5.624;2024-03-25T04:19:39;100675.53;;;2.41;100.00
59043;BME280;44826;51.596;5.624;2024-03-25T04:22:05;100675.53;;;2.41;100.00
59043;BME280;44826;51.596;5.624;2024-03-25T04:24:30;100667.00;;;2.39;100.00
59043;BME280;44826;51.596;5.624;2024-03-25T04:26:55;100669.56;;;2.39;100.00
59043;BME280;44826;51.596;5.624;2024-03-25T04:29:20;100670.41;;;2.39;100.00
59043;BME280;44826;51.596;5.624;2024-03-25T04:31:46;100669.56;;;2.39;100.00
59043;BME280;44826;51.596;5.624;2024-03-25T04:34:11;100668.69;;;2.37;100.00
59043;BME280;44826;51.596;5.624;2024-03-25T04:36:37;100668.69;;;2.37;100.00
59043;BME280;44826;51.596;5.624;2024-03-25T04:39:02;100668.66;;;2.34;100.00
59043;BME280;44826;51.596;5.624;2024-03-25T04:41:28;100668.66;;;2.32;100.00
59043;BME280;44826;51.596;5.624;2024-03-25T04:43:53;100673.78;;;2.31;100.00
59043;BME280;44826;51.596;5.624;2024-03-25T04:46:18;100683.19;;;2.30;100.00
59043;BME280;44826;51.596;5.624;2024-03-25T04:48:43;100672.94;;;2.30;100.00
59043;BME280;44826;51.596;5.624;2024-03-25T04:51:09;100672.06;;;2.30;100.00
59043;BME280;44826;51.596;5.624;2024-03-25T04:53:35;100666.09;;;2.29;100.00
59043;BME280;44826;51.596;5.624;2024-03-25T04:56:00;100671.19;;;2.27;100.00
59043;BME280;44826;51.596;5.624;2024-03-25T04:58:26;100679.75;;;2.25;100.00
59043;BME280;44826;51.596;5.624;2024-03-25T05:00:51;100673.75;;;2.21;100.00
59043;BME280;44826;51.596;5.624;2024-03-25T05:03:16;100674.56;;;2.19;100.00
59043;BME280;44826;51.596;5.624;2024-03-25T05:05:42;100672.84;;;2.16;100.00
59043;BME280;44826;51.596;5.624;2024-03-25T05:08:07;100675.41;;;2.16;100.00
59043;BME280;44826;51.596;5.624;2024-03-25T05:10:34;100681.38;;;2.13;100.00
59043;BME280;44826;51.596;5.624;2024-03-25T05:12:59;100692.50;;;2.12;100.00
59043;BME280;44826;51.596;5.624;2024-03-25T05:15:24;100691.63;;;2.12;100.00
59043;BME280;44826;51.596;5.624;2024-03-25T05:17:50;100689.06;;;2.10;100.00
59043;BME280;44826;51.596;5.624;2024-03-25T05:20:15;100695.88;;;2.10;100.00
59043;BME280;44826;51.596;5.624;2024-03-25T05:22:41;100691.59;;;2.07;100.00
59043;BME280;44826;51.596;5.624;2024-03-25T05:25:06;100695.88;;;2.07;100.00
59043;BME280;44826;51.596;5.624;2024-03-25T05:27:32;100694.16;;;2.06;100.00
59043;BME280;44826;51.596;5.624;2024-03-25T05:29:57;100700.16;;;2.05;100.00
59043;BME280;44826;51.596;5.624;2024-03-25T05:32:23;100699.28;;;2.03;100.00
59043;BME280;44826;51.596;5.624;2024-03-25T05:34:48;100701.84;;;2.03;100.00
59043;BME280;44826;51.596;5.624;2024-03-25T05:37:14;100698.41;;;2.01;100.00
59043;BME280;44826;51.596;5.624;2024-03-25T05:39:39;100700.09;;;2.00;100.00
59043;BME280;44826;51.596;5.624;2024-03-25T05:42:04;100702.66;;;2.00;100.00
59043;BME280;44826;51.596;5.624;2024-03-25T05:44:30;100700.13;;;2.02;100.00
59043;BME280;44826;51.596;5.624;2024-03-25T05:46:55;100702.66;;;2.00;100.00
59043;BME280;44826;51.596;5.624;2024-03-25T05:49:20;100714.69;;;2.03;100.00
59043;BME280;44826;51.596;5.624;2024-03-25T05:51:46;100706.94;;;2.01;100.00
59043;BME280;44826;51.596;5.624;2024-03-25T05:54:11;100707.81;;;2.02;100.00
59043;BME280;44826;51.596;5.624;2024-03-25T05:56:36;100694.13;;;2.01;100.00
59043;BME280;44826;51.596;5.624;2024-03-25T05:59:02;100697.56;;;2.02;100.00
59043;BME280;44826;51.596;5.624;2024-03-25T06:01:27;100696.72;;;2.06;100.00
59043;BME280;44826;51.596;5.624;2024-03-25T06:03:53;100691.59;;;2.07;100.00
59043;BME280;44826;51.596;5.624;2024-03-25T06:06:18;100691.59;;;2.09;100.00
59043;BME280;44826;51.596;5.624;2024-03-25T06:08:43;100692.47;;;2.11;100.00
59043;BME280;44826;51.596;5.624;2024-03-25T06:11:09;100689.94;;;2.16;100.00
59043;BME280;44826;51.596;5.624;2024-03-25T06:13:34;100689.97;;;2.19;100.00
59043;BME280;44826;51.596;5.624;2024-03-25T06:16:00;100689.16;;;2.21;100.00
59043;BME280;44826;51.596;5.624;2024-03-25T06:18:25;100685.69;;;2.22;100.00
59043;BME280;44826;51.596;5.624;2024-03-25T06:20:50;100681.44;;;2.23;100.00
59043;BME280;44826;51.596;5.624;2024-03-25T06:23:26;100684.00;;;2.21;100.00
59043;BME280;44826;51.596;5.624;2024-03-25T06:25:52;100686.53;;;2.20;100.00
59043;BME280;44826;51.596;5.624;2024-03-25T06:28:19;100680.56;;;2.22;100.00
59043;BME280;44826;51.596;5.624;2024-03-25T06:30:45;100680.59;;;2.25;100.00
59043;BME280;44826;51.596;5.624;2024-03-25T06:33:29;100680.63;;;2.28;100.00
59043;BME280;44826;51.596;5.624;2024-03-25T06:36:13;100679.81;;;2.36;100.00
59043;BME280;44826;51.596;5.624;2024-03-25T06:38:38;100673.81;;;2.40;100.00
59043;BME280;44826;51.596;5.624;2024-03-25T06:41:04;100672.13;;;2.45;100.00
59043;BME280;44826;51.596;5.624;2024-03-25T06:43:29;100675.56;;;2.49;100.00
59043;BME280;44826;51.596;5.624;2024-03-25T06:45:55;100673.91;;;2.52;100.00
59043;BME280;44826;51.596;5.624;2024-03-25T06:48:20;100674.75;;;2.57;100.00
59043;BME280;44826;51.596;5.624;2024-03-25T06:50:58;100675.66;;;2.63;100.00
59043;BME280;44826;51.596;5.624;2024-03-25T06:53:24;100679.94;;;2.68;100.00
59043;BME280;44826;51.596;5.624;2024-03-25T06:55:58;100677.41;;;2.73;100.00
59043;BME280;44826;51.596;5.624;2024-03-25T06:58:24;100674.84;;;2.76;100.00
59043;BME280;44826;51.596;5.624;2024-03-25T07:00:50;100686.00;;;2.81;100.00
59043;BME280;44826;51.596;5.624;2024-03-25T07:03:20;100681.75;;;2.86;100.00
59043;BME280;44826;51.596;5.624;2024-03-25T07:05:46;100678.34;;;2.92;100.00
59043;BME280;44826;51.596;5.624;2024-03-25T07:08:12;100672.34;;;2.98;100.00
59043;BME280;44826;51.596;5.624;2024-03-25T07:10:38;100679.22;;;3.02;100.00
59043;BME280;44826;51.596;5.624;2024-03-25T07:13:03;100672.38;;;3.07;100.00
59043;BME280;44826;51.596;5.624;2024-03-25T07:15:30;100674.09;;;3.11;100.00
59043;BME280;44826;51.596;5.624;2024-03-25T07:17:56;100669.84;;;3.15;100.00
59043;BME280;44826;51.596;5.624;2024-03-25T07:20:21;100674.13;;;3.21;100.00
59043;BME280;44826;51.596;5.624;2024-03-25T07:22:47;100665.53;;;3.25;100.00
59043;BME280;44826;51.596;5.624;2024-03-25T07:25:13;100669.00;;;3.31;100.00
59043;BME280;44826;51.596;5.624;2024-03-25T07:27:38;100665.56;;;3.36;100.00
59043;BME280;44826;51.596;5.624;2024-03-25T07:30:05;100672.44;;;3.43;100.00
59043;BME280;44826;51.596;5.624;2024-03-25T07:32:32;100669.00;;;3.48;100.00
59043;BME280;44826;51.596;5.624;2024-03-25T07:34:57;100662.16;;;3.54;100.00
59043;BME280;44826;51.596;5.624;2024-03-25T07:37:22;100659.56;;;3.60;100.00
59043;BME280;44826;51.596;5.624;2024-03-25T07:39:48;100663.88;;;3.64;100.00
59043;BME280;44826;51.596;5.624;2024-03-25T07:42:13;100659.59;;;3.72;100.00
59043;BME280;44826;51.596;5.624;2024-03-25T07:44:39;100656.16;;;3.78;100.00
59043;BME280;44826;51.596;5.624;2024-03-25T07:47:04;100656.13;;;3.83;100.00
59043;BME280;44826;51.596;5.624;2024-03-25T07:49:33;100653.56;;;3.89;100.00
59043;BME280;44826;51.596;5.624;2024-03-25T07:52:02;100659.53;;;3.97;100.00
59043;BME280;44826;51.596;5.624;2024-03-25T07:54:28;100656.09;;;4.03;100.00
59043;BME280;44826;51.596;5.624;2024-03-25T07:56:54;100662.97;;;4.08;100.00
59043;BME280;44826;51.596;5.624;2024-03-25T07:59:19;100661.25;;;4.15;100.00
59043;BME280;44826;51.596;5.624;2024-03-25T08:01:44;100668.09;;;4.22;100.00
59043;BME280;44826;51.596;5.624;2024-03-25T08:04:10;100660.34;;;4.29;100.00
59043;BME280;44826;51.596;5.624;2024-03-25T08:06:35;100663.75;;;4.35;100.00
59043;BME280;44826;51.596;5.624;2024-03-25T08:09:01;100667.19;;;4.44;100.00
59043;BME280;44826;51.596;5.624;2024-03-25T08:11:26;100666.28;;;4.51;100.00
59043;BME280;44826;51.596;5.624;2024-03-25T08:13:52;100664.53;;;4.58;100.00
59043;BME280;44826;51.596;5.624;2024-03-25T08:16:17;100665.38;;;4.66;100.00
59043;BME280;44826;51.596;5.624;2024-03-25T08:18:42;100671.34;;;4.71;100.00
59043;BME280;44826;51.596;5.624;2024-03-25T08:21:08;100671.31;;;4.79;100.00
59043;BME280;44826;51.596;5.624;2024-03-25T08:23:33;100663.56;;;4.85;100.00
59043;BME280;44826;51.596;5.624;2024-03-25T08:25:58;100674.72;;;4.93;100.00
59043;BME280;44826;51.596;5.624;2024-03-25T08:28:25;100677.25;;;4.99;100.00
59043;BME280;44826;51.596;5.624;2024-03-25T08:30:51;100671.22;;;5.04;100.00
59043;BME280;44826;51.596;5.624;2024-03-25T08:33:16;100680.63;;;5.11;100.00
59043;BME280;44826;51.596;5.624;2024-03-25T08:35:41;100677.16;;;5.15;100.00
59043;BME280;44826;51.596;5.624;2024-03-25T08:38:07;100662.50;;;5.20;100.00
59043;BME280;44826;51.596;5.624;2024-03-25T08:40:32;100663.38;;;5.22;100.00
59043;BME280;44826;51.596;5.624;2024-03-25T08:42:57;100665.06;;;5.26;100.00
59043;BME280;44826;51.596;5.624;2024-03-25T08:45:23;100664.16;;;5.30;100.00
59043;BME280;44826;51.596;5.624;2024-03-25T08:47:48;100667.56;;;5.36;100.00
59043;BME280;44826;51.596;5.624;2024-03-25T08:50:13;100660.66;;;5.41;100.00
59043;BME280;44826;51.596;5.624;2024-03-25T08:52:39;100657.16;;;5.46;100.00
59043;BME280;44826;51.596;5.624;2024-03-25T08:55:06;100658.00;;;5.50;100.00
59043;BME280;44826;51.596;5.624;2024-03-25T08:57:31;100647.66;;;5.53;100.00
59043;BME280;44826;51.596;5.624;2024-03-25T08:59:56;100648.47;;;5.57;100.00
59043;BME280;44826;51.596;5.624;2024-03-25T09:02:21;100657.91;;;5.62;100.00
59043;BME280;44826;51.596;5.624;2024-03-25T09:04:47;100659.56;;;5.70;100.00
59043;BME280;44826;51.596;5.624;2024-03-25T09:07:14;100662.94;;;5.78;100.00
59043;BME280;44826;51.596;5.624;2024-03-25T09:09:39;100656.88;;;5.84;100.00
59043;BME280;44826;51.596;5.624;2024-03-25T09:12:23;100659.34;;;5.95;100.00
59043;BME280;44826;51.596;5.624;2024-03-25T09:14:48;100659.28;;;6.04;100.00
59043;BME280;44826;51.596;5.624;2024-03-25T09:17:13;100656.63;;;6.12;100.00
59043;BME280;44826;51.596;5.624;2024-03-25T09:19:39;100644.50;;;6.18;100.00
59043;BME280;44826;51.596;5.624;2024-03-25T09:22:04;100649.56;;;6.26;100.00
59043;BME280;44826;51.596;5.624;2024-03-25T09:24:29;100648.59;;;6.38;100.00
59043;BME280;44826;51.596;5.624;2024-03-25T09:26:55;100647.63;;;6.47;100.00
59043;BME280;44826;51.596;5.624;2024-03-25T09:29:20;100642.47;;;6.48;100.00
59043;BME280;44826;51.596;5.624;2024-03-25T09:31:45;100638.09;;;6.50;100.00
59043;BME280;44826;51.596;5.624;2024-03-25T09:34:11;100636.38;;;6.49;100.00
59043;BME280;44826;51.596;5.624;2024-03-25T09:36:36;100633.78;;;6.52;100.00
59043;BME280;44826;51.596;5.624;2024-03-25T09:39:01;100630.25;;;6.58;100.00
59043;BME280;44826;51.596;5.624;2024-03-25T09:41:30;100631.06;;;6.65;100.00
59043;BME280;44826;51.596;5.624;2024-03-25T09:43:59;100621.53;;;6.68;100.00
59043;BME280;44826;51.596;5.624;2024-03-25T09:46:26;100619.66;;;6.77;100.00
59043;BME280;44826;51.596;5.624;2024-03-25T09:48:52;100613.59;;;6.82;100.00
59043;BME280;44826;51.596;5.624;2024-03-25T09:51:18;100608.31;;;6.89;100.00
59043;BME280;44826;51.596;5.624;2024-03-25T09:53:44;100611.72;;;6.91;100.00
59043;BME280;44826;51.596;5.624;2024-03-25T09:56:10;100602.16;;;6.97;100.00
59043;BME280;44826;51.596;5.624;2024-03-25T09:58:38;100612.38;;;7.05;100.00
59043;BME280;44826;51.596;5.624;2024-03-25T10:01:04;100603.66;;;7.12;100.00
59043;BME280;44826;51.596;5.624;2024-03-25T10:03:29;100596.66;;;7.19;100.00
59043;BME280;44826;51.596;5.624;2024-03-25T10:05:54;100587.09;;;7.23;100.00
59043;BME280;44826;51.596;5.624;2024-03-25T10:08:23;100593.06;;;7.28;100.00
59043;BME280;44826;51.596;5.624;2024-03-25T10:10:51;100588.78;;;7.27;98.66
59043;BME280;44826;51.596;5.624;2024-03-25T10:13:17;100580.94;;;7.32;99.04
59043;BME280;44826;51.596;5.624;2024-03-25T10:15:42;100583.47;;;7.35;97.56
59043;BME280;44826;51.596;5.624;2024-03-25T10:18:11;100576.50;;;7.40;97.01
59043;BME280;44826;51.596;5.624;2024-03-25T10:20:36;100579.00;;;7.43;96.66
59043;BME280;44826;51.596;5.624;2024-03-25T10:23:02;100579.00;;;7.43;96.04
59043;BME280;44826;51.596;5.624;2024-03-25T10:25:30;100574.66;;;7.47;93.40
59043;BME280;44826;51.596;5.624;2024-03-25T10:27:59;100578.78;;;7.57;97.09
59043;BME280;44826;51.596;5.624;2024-03-25T10:30:26;100559.69;;;7.64;94.31
59043;BME280;44826;51.596;5.624;2024-03-25T10:33:04;100555.91;;;7.81;97.83
59043;BME280;44826;51.596;5.624;2024-03-25T10:35:32;100565.94;;;7.98;95.68
59043;BME280;44826;51.596;5.624;2024-03-25T10:38:02;100562.19;;;8.13;92.02
59043;BME280;44826;51.596;5.624;2024-03-25T10:40:29;100551.47;;;8.30;92.36
59043;BME280;44826;51.596;5.624;2024-03-25T10:43:13;100550.22;;;8.49;90.86
59043;BME280;44826;51.596;5.624;2024-03-25T10:45:48;100546.59;;;8.58;87.89
59043;BME280;44826;51.596;5.624;2024-03-25T10:48:28;100549.94;;;8.63;85.93
59043;BME280;44826;51.596;5.624;2024-03-25T10:50:58;100545.59;;;8.64;84.06
59043;BME280;44826;51.596;5.624;2024-03-25T10:53:27;100544.63;;;8.70;85.72
59043;BME280;44826;51.596;5.624;2024-03-25T10:55:54;100540.09;;;8.78;85.05
59043;BME280;44826;51.596;5.624;2024-03-25T10:58:21;100541.66;;;8.85;84.07
59043;BME280;44826;51.596;5.624;2024-03-25T11:00:48;100537.13;;;8.93;82.42
59043;BME280;44826;51.596;5.624;2024-03-25T11:03:13;100537.91;;;8.97;79.40
59043;BME280;44826;51.596;5.624;2024-03-25T11:05:39;100534.41;;;9.00;81.22
59043;BME280;44826;51.596;5.624;2024-03-25T11:10:39;100526.38;;;9.09;88.86
59043;BME280;44826;51.596;5.624;2024-03-25T11:13:10;100529.03;;;9.07;81.63
59043;BME280;44826;51.596;5.624;2024-03-25T11:15:36;100530.81;;;9.05;81.86
59043;BME280;44826;51.596;5.624;2024-03-25T11:18:03;100522.22;;;9.03;81.09
59043;BME280;44826;51.596;5.624;2024-03-25T11:20:28;100528.34;;;9.01;79.96
59043;BME280;44826;51.596;5.624;2024-03-25T11:22:54;100518.66;;;9.06;81.08
59043;BME280;44826;51.596;5.624;2024-03-25T11:25:22;100515.09;;;9.11;79.29
59043;BME280;44826;51.596;5.624;2024-03-25T11:27:48;100514.91;;;9.19;80.61
59043;BME280;44826;51.596;5.624;2024-03-25T11:30:14;100515.53;;;9.27;81.37
59043;BME280;44826;51.596;5.624;2024-03-25T11:32:43;100510.03;;;9.40;81.25
59043;BME280;44826;51.596;5.624;2024-03-25T11:35:09;100505.38;;;9.53;74.60
59043;BME280;44826;51.596;5.624;2024-03-25T11:37:40;100504.25;;;9.63;75.51
59043;BME280;44826;51.596;5.624;2024-03-25T11:40:06;100506.72;;;9.68;74.47
59043;BME280;44826;51.596;5.624;2024-03-25T11:42:32;100499.66;;;9.73;72.91
59043;BME280;44826;51.596;5.624;2024-03-25T11:44:59;100489.97;;;9.78;75.19
59043;BME280;44826;51.596;5.624;2024-03-25T11:47:25;100496.69;;;9.85;69.84
59043;BME280;44826;51.596;5.624;2024-03-25T11:49:51;100489.34;;;10.00;74.15
59043;BME280;44826;51.596;5.624;2024-03-25T11:52:16;100486.22;;;10.18;74.21
59043;BME280;44826;51.596;5.624;2024-03-25T11:54:42;100481.44;;;10.33;74.71
59043;BME280;44826;51.596;5.624;2024-03-25T11:57:08;100474.91;;;10.50;74.20
59043;BME280;44826;51.596;5.624;2024-03-25T11:59:34;100476.06;;;10.68;73.94
59043;BME280;44826;51.596;5.624;2024-03-25T12:01:59;100467.81;;;10.82;70.66
59043;BME280;44826;51.596;5.624;2024-03-25T12:04:24;100464.69;;;10.97;71.35
59043;BME280;44826;51.596;5.624;2024-03-25T12:06:54;100457.34;;;11.10;68.76
59043;BME280;44826;51.596;5.624;2024-03-25T12:09:22;100456.38;;;11.13;68.84
59043;BME280;44826;51.596;5.624;2024-03-25T12:12:06;100451.97;;;11.15;66.75
59043;BME280;44826;51.596;5.624;2024-03-25T12:14:32;100442.06;;;11.24;66.85
59043;BME280;44826;51.596;5.624;2024-03-25T12:16:58;100436.69;;;11.29;64.73
59043;BME280;44826;51.596;5.624;2024-03-25T12:19:26;100426.88;;;11.37;66.03
59043;BME280;44826;51.596;5.624;2024-03-25T12:21:59;100415.09;;;11.51;70.15
59043;BME280;44826;51.596;5.624;2024-03-25T12:24:26;100416.34;;;11.64;66.14
59043;BME280;44826;51.596;5.624;2024-03-25T12:26:51;100408.84;;;11.79;67.13
59043;BME280;44826;51.596;5.624;2024-03-25T12:29:16;100405.00;;;11.89;69.18
59043;BME280;44826;51.596;5.624;2024-03-25T12:31:42;100402.94;;;11.97;66.13
59043;BME280;44826;51.596;5.624;2024-03-25T12:34:12;100405.97;;;12.10;69.47
59043;BME280;44826;51.596;5.624;2024-03-25T12:36:38;100396.91;;;12.19;65.26
59043;BME280;44826;51.596;5.624;2024-03-25T12:39:03;100405.16;;;12.30;64.40
59043;BME280;44826;51.596;5.624;2024-03-25T12:41:28;100411.72;;;12.41;65.03
59043;BME280;44826;51.596;5.624;2024-03-25T12:43:54;100415.59;;;12.53;60.09
59043;BME280;44826;51.596;5.624;2024-03-25T12:46:19;100401.31;;;12.62;59.30
59043;BME280;44826;51.596;5.624;2024-03-25T12:48:45;100387.41;;;12.61;57.77